.
WxDataArchive / Data Records for 2013-02-21
2013-02-20 February 2013 2013-02-22

Data Records for Thursday, 21 February 2013

Time	Temp	Chill	HIndex	Humid	Dewpt	 Wind 	HiWind	WindDir	Rain 	Barom 
-----	----	-----	------	-----	-----	------	------	-------	-----	----- 
00:00	21.4	21.4	21.4	67	12.2	2	4	338	0.00	30.319 
00:05	21.3	21.3	21.3	67	12.1	1	5	0	0.00	30.319 
00:10	21.3	21.3	21.3	67	12.1	1	4	338	0.00	30.319 
00:15	21.4	21.4	21.4	67	12.2	0	3	315	0.00	30.321 
00:20	21.3	21.3	21.3	67	12.1	1	3	22	0.00	30.321 
00:25	21.3	21.3	21.3	66	11.7	0	2	338	0.00	30.321 
00:30	21.3	21.3	21.3	67	12.1	1	5	338	0.00	30.323 
00:35	21.3	21.3	21.3	67	12.1	0	2	22	0.00	30.323 
00:40	21.3	21.3	21.3	66	11.7	1	3	0	0.00	30.323 
00:45	21.4	21.4	21.4	67	12.2	1	3	292	0.00	30.327 
00:50	21.4	21.4	21.4	66	11.8	1	3	315	0.00	30.327 
00:55	21.4	21.4	21.4	66	11.8	1	4	338	0.00	30.327 
01:00	21.4	21.4	21.4	66	11.8	1	3	338	0.00	30.328 
01:05	21.4	21.4	21.4	66	11.8	1	4	315	0.00	30.328 
01:10	21.4	21.4	21.4	66	11.8	1	3	315	0.00	30.328 
01:15	21.4	21.4	21.4	67	12.2	0	2	0	0.00	30.330 
01:20	21.4	21.4	21.4	67	12.2	0	2	0	0.00	30.330 
01:25	21.3	21.3	21.3	66	11.7	1	4	315	0.00	30.330 
01:30	21.3	21.3	21.3	67	12.1	0	3	315	0.00	30.329 
01:35	21.3	21.3	21.3	67	12.1	1	4	338	0.00	30.329 
01:40	21.3	21.3	21.3	66	11.7	1	5	292	0.00	30.329 
01:45	21.3	21.3	21.3	67	12.1	1	3	292	0.00	30.329 
01:50	21.3	21.3	21.3	67	12.1	1	2	315	0.00	30.329 
01:55	21.3	21.3	21.3	67	12.1	0	2	315	0.00	30.329 
02:00	21.3	21.3	21.3	67	12.1	1	3	338	0.00	30.329 
02:05	21.3	21.3	21.3	67	12.1	1	4	0	0.00	30.329 
02:10	21.3	21.3	21.3	67	12.1	1	5	315	0.00	30.329 
02:15	21.1	21.1	21.1	67	11.9	1	3	338	0.00	30.328 
02:20	21.1	21.1	21.1	68	12.2	1	4	315	0.00	30.328 
02:25	21.1	21.1	21.1	68	12.2	1	2	270	0.00	30.328 
02:30	21.1	21.1	21.1	68	12.2	0	2	292	0.00	30.329 
02:35	21.3	21.3	21.3	68	12.4	1	3	338	0.00	30.329 
02:40	21.3	21.3	21.3	68	12.4	0	3	0	0.00	30.329 
02:45	21.3	21.3	21.3	68	12.4	0	3	270	0.00	30.329 
02:50	21.3	21.3	21.3	68	12.4	0	1	270	0.00	30.329 
02:55	21.3	21.3	21.3	68	12.4	0	2	292	0.00	30.329 
03:00	21.3	21.3	21.3	69	12.7	0	2	292	0.00	30.329 
03:05	21.3	21.3	21.3	69	12.7	1	3	292	0.00	30.329 
03:10	21.3	21.3	21.3	69	12.7	0	3	292	0.00	30.329 
03:15	21.3	21.3	21.3	69	12.7	0	3	292	0.00	30.333 
03:20	21.3	21.3	21.3	69	12.7	0	1	292	0.00	30.333 
03:25	21.3	21.3	21.3	69	12.7	0	1	292	0.00	30.333 
03:30	21.3	21.3	21.3	69	12.7	1	4	292	0.00	30.334 
03:35	21.3	21.3	21.3	69	12.7	0	2	292	0.00	30.334 
03:40	21.3	21.3	21.3	69	12.7	1	4	338	0.00	30.334 
03:45	21.3	21.3	21.3	69	12.7	1	2	338	0.00	30.333 
03:50	21.3	21.3	21.3	69	12.7	1	4	248	0.00	30.333 
03:55	21.1	21.1	21.1	69	12.5	1	4	270	0.00	30.333 
04:00	21.1	21.1	21.1	69	12.5	0	2	270	0.00	30.328 
04:05	21.1	21.1	21.1	69	12.5	0	2	270	0.00	30.328 
04:10	21.1	21.1	21.1	69	12.5	0	1	270	0.00	30.328 
04:15	21.1	21.1	21.1	69	12.5	1	3	0	0.00	30.328 
04:20	21.1	21.1	21.1	69	12.5	0	3	338	0.00	30.328 
04:25	21.1	21.1	21.1	70	12.9	0	3	270	0.00	30.328 
04:30	21.1	21.1	21.1	70	12.9	0	2	315	0.00	30.329 
04:35	21.1	21.1	21.1	70	12.9	0	2	315	0.00	30.329 
04:40	21.1	21.1	21.1	70	12.9	1	3	292	0.00	30.329 
04:45	21.1	21.1	21.1	70	12.9	1	4	315	0.00	30.336 
04:50	21.1	21.1	21.1	70	12.9	1	3	292	0.00	30.336 
04:55	21.1	21.1	21.1	70	12.9	0	2	292	0.00	30.336 
05:00	21.1	21.1	21.1	70	12.9	0	1	292	0.00	30.336 
05:05	21.1	21.1	21.1	71	13.2	0	2	22	0.00	30.336 
05:10	21.1	21.1	21.1	70	12.9	1	3	22	0.00	30.336 
05:15	21.1	21.1	21.1	71	13.2	0	2	0	0.00	30.336 
05:20	21.1	21.1	21.1	71	13.2	0	1	0	0.00	30.336 
05:25	21.1	21.1	21.1	71	13.2	0	2	0	0.00	30.336 
05:30	21.1	21.1	21.1	71	13.2	0	4	270	0.00	30.333 
05:35	21.1	21.1	21.1	71	13.2	0	3	0	0.00	30.333 
05:40	21.0	21.0	21.0	71	13.1	1	5	0	0.00	30.333 
05:45	21.0	21.0	21.0	71	13.1	1	3	292	0.00	30.341 
05:50	21.0	21.0	21.0	71	13.1	0	1	292	0.00	30.341 
05:55	21.0	21.0	21.0	71	13.1	0	3	338	0.00	30.341 
06:00	21.0	21.0	21.0	71	13.1	1	4	270	0.00	30.343 
06:05	20.8	20.8	20.8	71	12.9	1	4	270	0.00	30.343 
06:10	20.8	20.8	20.8	71	12.9	1	5	292	0.00	30.343 
06:15	20.8	20.8	20.8	72	13.2	0	2	270	0.00	30.350 
06:20	20.8	20.8	20.8	72	13.2	0	2	338	0.00	30.350 
06:25	20.8	20.8	20.8	72	13.2	1	4	338	0.00	30.350 
06:30	20.8	20.8	20.8	72	13.2	1	3	22	0.00	30.357 
06:35	20.8	20.8	20.8	72	13.2	1	3	338	0.00	30.357 
06:40	20.8	20.8	20.8	72	13.2	0	2	45	0.00	30.357 
06:45	20.8	20.8	20.8	72	13.2	0	4	270	0.00	30.361 
06:50	20.8	20.8	20.8	72	13.2	1	3	270	0.00	30.361 
06:55	20.8	20.8	20.8	72	13.2	0	2	292	0.00	30.361 
07:00	20.8	20.8	20.8	72	13.2	0	1	292	0.00	30.365 
07:05	20.8	20.8	20.8	72	13.2	0	3	315	0.00	30.365 
07:10	20.8	20.8	20.8	72	13.2	1	3	270	0.00	30.365 
07:15	20.8	20.8	20.8	72	13.2	1	3	270	0.00	30.376 
07:20	20.6	20.6	20.6	72	13.0	0	2	315	0.00	30.376 
07:25	20.6	20.6	20.6	72	13.0	0	1	315	0.00	30.376 
07:30	20.6	20.6	20.6	72	13.0	0	1	315	0.00	30.393 
07:35	20.6	20.6	20.6	73	13.3	0	1	315	0.00	30.393 
07:40	20.8	20.8	20.8	73	13.5	0	2	315	0.00	30.393 
07:45	20.8	20.8	20.8	73	13.5	0	1	315	0.00	30.381 
07:50	20.8	20.8	20.8	73	13.5	0	1	315	0.00	30.381 
07:55	20.8	20.8	20.8	73	13.5	0	2	0	0.00	30.381 
08:00	21.0	21.0	21.0	73	13.7	1	7	0	0.00	30.360 
08:05	20.8	20.8	20.8	72	13.2	0	2	0	0.00	30.360 
08:10	20.8	20.8	20.8	72	13.2	0	2	90	0.00	30.360 
08:15	20.8	20.8	20.8	72	13.2	1	4	112	0.00	30.369 
08:20	21.0	21.0	21.0	72	13.4	0	3	112	0.00	30.369 
08:25	21.0	21.0	21.0	72	13.4	0	1	112	0.00	30.369 
08:30	21.0	21.0	21.0	72	13.4	0	2	45	0.00	30.375 
08:35	21.1	21.1	21.1	71	13.2	0	3	45	0.00	30.375 
08:40	21.1	21.1	21.1	71	13.2	0	2	22	0.00	30.375 
08:45	21.1	21.1	21.1	72	13.5	0	3	22	0.00	30.379 
08:50	21.3	21.3	21.3	73	14.0	0	3	22	0.00	30.379 
08:55	21.4	21.4	21.4	73	14.1	0	3	22	0.00	30.379 
09:00	21.4	21.4	21.4	74	14.4	0	2	22	0.00	30.378 
09:05	21.6	21.6	21.6	74	14.6	0	3	22	0.00	30.378 
09:10	21.6	21.6	21.6	74	14.6	0	1	22	0.00	30.378 
09:15	21.6	21.6	21.6	74	14.6	0	2	22	0.00	30.377 
09:20	21.6	21.6	21.6	74	14.6	0	1	22	0.00	30.377 
09:25	21.8	21.8	21.8	75	15.1	0	1	22	0.00	30.377 
09:30	21.8	21.8	21.8	75	15.1	0	3	22	0.00	30.380 
09:35	21.9	21.9	21.9	74	14.9	0	2	68	0.00	30.380 
09:40	22.1	22.1	22.1	74	15.1	0	2	68	0.00	30.380 
09:45	22.1	22.1	22.1	73	14.8	1	5	112	0.00	30.381 
09:50	22.2	22.2	22.2	74	15.2	0	1	112	0.00	30.381 
09:55	22.4	22.4	22.4	73	15.1	0	2	112	0.00	30.381 
10:00	22.4	22.4	22.4	73	15.1	0	1	112	0.00	30.401 
10:05	22.4	22.4	22.4	72	14.8	0	1	112	0.00	30.401 
10:10	22.4	22.4	22.4	73	15.1	0	2	90	0.00	30.401 
10:15	22.7	22.7	22.7	73	15.4	0	1	90	0.00	30.385 
10:20	22.9	22.9	22.9	73	15.6	0	2	90	0.00	30.385 
10:25	23.0	23.0	23.0	71	15.0	0	2	90	0.00	30.385 
10:30	23.2	23.2	23.2	70	14.9	1	4	90	0.00	30.384 
10:35	23.2	23.2	23.2	69	14.6	0	2	90	0.00	30.384 
10:40	23.2	23.2	23.2	69	14.6	0	2	68	0.00	30.384 
10:45	23.2	23.2	23.2	69	14.6	0	4	68	0.00	30.385 
10:50	23.2	23.2	23.2	69	14.6	1	3	225	0.00	30.385 
10:55	23.3	23.3	23.3	69	14.7	0	3	22	0.00	30.385 
11:00	23.5	23.5	23.5	69	14.9	0	2	22	0.00	30.373 
11:05	23.3	23.3	23.3	68	14.3	2	5	90	0.00	30.373 
11:10	23.2	23.2	23.2	70	14.9	2	5	90	0.00	30.373 
11:15	23.5	23.5	23.5	69	14.9	1	6	90	0.00	30.371 
11:20	23.6	23.6	23.6	69	14.9	2	7	112	0.00	30.371 
11:25	23.8	23.8	23.8	68	14.8	2	9	90	0.00	30.371 
11:30	23.8	23.8	23.8	68	14.8	1	3	90	0.00	30.375 
11:35	23.9	23.9	23.9	68	14.9	1	7	90	0.00	30.375 
11:40	23.9	23.9	23.9	66	14.2	3	6	90	0.00	30.375 
11:45	23.9	23.9	23.9	68	14.9	1	4	112	0.00	30.384 
11:50	23.9	23.9	23.9	67	14.6	2	4	112	0.00	30.384 
11:55	24.1	24.1	24.1	67	14.8	1	4	112	0.00	30.384 
12:00	24.2	24.2	24.2	68	15.2	1	4	112	0.00	30.392 
12:05	24.4	24.4	24.4	68	15.4	2	6	112	0.00	30.392 
12:10	24.5	24.5	24.5	67	15.1	2	7	90	0.00	30.392 
12:15	24.5	24.5	24.5	66	14.8	2	5	90	0.00	30.390 
12:20	24.7	24.7	24.7	67	15.3	1	3	90	0.00	30.390 
12:25	24.7	24.7	24.7	66	15.0	1	3	112	0.00	30.390 
12:30	25.0	25.0	25.0	66	15.3	1	4	112	0.00	30.388 
12:35	25.1	25.1	25.1	66	15.4	1	4	112	0.00	30.388 
12:40	25.0	25.0	25.0	66	15.3	2	6	112	0.00	30.388 
12:45	25.1	25.1	25.1	67	15.7	2	7	90	0.00	30.372 
12:50	25.4	25.4	25.4	66	15.7	2	6	90	0.00	30.372 
12:55	25.3	25.3	25.3	66	15.6	2	6	90	0.00	30.372 
13:00	25.1	25.1	25.1	66	15.4	3	7	112	0.00	30.355 
13:05	25.1	25.1	25.1	66	15.4	3	6	90	0.00	30.355 
13:10	25.4	25.4	25.4	67	16.0	1	5	90	0.00	30.355 
13:15	25.6	25.6	25.6	66	15.8	2	6	112	0.00	30.344 
13:20	25.6	25.6	25.6	66	15.8	2	6	90	0.00	30.344 
13:25	25.6	25.6	25.6	66	15.8	3	6	112	0.00	30.344 
13:30	25.4	25.4	25.4	67	16.0	2	6	90	0.00	30.325 
13:35	25.8	25.8	25.8	66	16.0	2	5	90	0.00	30.325 
13:40	26.3	26.3	26.3	67	16.9	2	6	90	0.00	30.325 
13:45	26.6	26.6	26.6	64	16.1	2	9	90	0.00	30.316 
13:50	26.3	26.3	26.3	65	16.2	3	8	90	0.00	30.316 
13:55	26.4	26.4	26.4	66	16.6	3	7	90	0.00	30.316 
14:00	26.6	26.6	26.6	65	16.4	1	3	45	0.00	30.323 
14:05	26.9	26.9	26.9	65	16.7	2	7	90	0.00	30.323 
14:10	26.6	20.7	26.6	64	16.1	5	10	90	0.00	30.323 
14:15	26.4	21.6	26.4	65	16.3	4	9	90	0.00	30.316 
14:20	26.4	26.4	26.4	65	16.3	3	7	112	0.00	30.316 
14:25	26.7	26.7	26.7	65	16.5	2	6	90	0.00	30.316 
14:30	26.7	26.7	26.7	65	16.5	3	9	112	0.00	30.298 
14:35	26.9	26.9	26.9	65	16.7	2	7	90	0.00	30.298 
14:40	26.7	22.0	26.7	65	16.5	4	10	90	0.00	30.298 
14:45	26.9	26.9	26.9	65	16.7	3	11	90	0.00	30.277 
14:50	26.9	26.9	26.9	65	16.7	3	9	90	0.00	30.277 
14:55	26.6	20.7	26.6	65	16.4	5	11	112	0.00	30.277 
15:00	26.4	21.6	26.4	66	16.6	4	10	90	0.00	30.257 
15:05	26.6	21.8	26.6	66	16.8	4	10	90	0.00	30.257 
15:10	26.3	18.6	26.3	65	16.2	7	12	90	0.00	30.257 
15:15	26.3	21.5	26.3	66	16.5	4	10	90	0.00	30.247 
15:20	26.3	21.5	26.3	66	16.5	4	13	90	0.00	30.247 
15:25	26.3	20.4	26.3	67	16.9	5	12	90	0.00	30.247 
15:30	26.4	21.6	26.4	65	16.3	4	12	90	0.00	30.274 
15:35	26.4	21.6	26.4	65	16.3	4	10	90	0.00	30.274 
15:40	26.6	21.8	26.6	65	16.4	4	12	90	0.00	30.274 
15:45	26.7	26.7	26.7	65	16.5	3	9	90	0.00	30.282 
15:50	26.7	26.7	26.7	65	16.5	3	6	112	0.00	30.282 
15:55	26.7	22.0	26.7	65	16.5	4	10	90	0.00	30.282 
16:00	26.7	22.0	26.7	65	16.5	4	12	90	0.00	30.291 
16:05	26.7	20.9	26.7	65	16.5	5	9	112	0.00	30.291 
16:10	26.7	22.0	26.7	66	16.9	4	10	90	0.00	30.291 
16:15	26.7	22.0	26.7	66	16.9	4	10	90	0.00	30.292 
16:20	26.7	22.0	26.7	66	16.9	4	10	90	0.00	30.292 
16:25	26.7	22.0	26.7	67	17.2	4	7	90	0.00	30.292 
16:30	26.6	21.8	26.6	67	17.1	4	10	90	0.00	30.295 
16:35	26.7	26.7	26.7	67	17.2	3	7	90	0.00	30.295 
16:40	26.7	22.0	26.7	67	17.2	4	13	90	0.00	30.295 
16:45	26.6	20.7	26.6	67	17.1	5	12	90	0.00	30.294 
16:50	26.6	20.7	26.6	68	17.5	5	9	90	0.00	30.294 
16:55	26.6	26.6	26.6	68	17.5	3	7	90	0.00	30.294 
17:00	26.4	20.5	26.4	68	17.3	5	13	90	0.00	30.290 
17:05	26.3	20.4	26.3	69	17.5	5	11	90	0.00	30.290 
17:10	26.1	19.2	26.1	69	17.3	6	13	90	0.00	30.290 
17:15	26.0	20.0	26.0	69	17.2	5	11	90	0.00	30.302 
17:20	26.0	19.1	26.0	69	17.2	6	13	112	0.00	30.302 
17:25	25.8	19.8	25.8	69	17.1	5	11	90	0.00	30.302 
17:30	25.8	19.8	25.8	69	17.1	5	12	90	0.00	30.310 
17:35	25.8	19.8	25.8	70	17.4	5	11	90	0.00	30.310 
17:40	25.8	20.9	25.8	71	17.7	4	11	90	0.00	30.310 
17:45	25.8	20.9	25.8	70	17.4	4	11	90	0.00	30.309 
17:50	25.8	20.9	25.8	70	17.4	4	9	90	0.00	30.309 
17:55	25.8	20.9	25.8	70	17.4	4	10	90	0.00	30.309 
18:00	25.8	20.9	25.8	70	17.4	4	10	90	0.00	30.304 
18:05	25.7	19.7	25.7	71	17.6	5	13	90	0.00	30.304 
18:10	25.7	18.7	25.7	70	17.3	6	15	90	0.00	30.304 
18:15	25.6	19.6	25.6	71	17.5	5	12	90	0.00	30.294 
18:20	25.6	19.6	25.6	71	17.5	5	11	90	0.00	30.294 
18:25	25.6	18.6	25.6	72	17.8	6	12	90	0.00	30.294 
18:30	25.4	17.5	25.4	72	17.7	7	12	90	0.00	30.275 
18:35	25.4	16.8	25.4	72	17.7	8	17	90	0.00	30.275 
18:40	25.4	19.3	25.4	73	18.0	5	13	90	0.00	30.275 
18:45	25.3	17.4	25.3	73	17.9	7	15	90	0.00	30.275 
18:50	25.1	17.2	25.1	73	17.7	7	13	90	0.00	30.275 
18:55	25.1	17.2	25.1	73	17.7	7	14	90	0.00	30.275 
19:00	25.0	17.1	25.0	73	17.6	7	17	90	0.00	30.294 
19:05	25.0	18.9	25.0	73	17.6	5	12	90	0.00	30.294 
19:10	24.8	17.7	24.8	73	17.4	6	13	90	0.00	30.294 
19:15	24.8	17.7	24.8	74	17.7	6	13	90	0.00	30.295 
19:20	24.7	18.5	24.7	74	17.6	5	11	90	0.00	30.295 
19:25	24.7	18.5	24.7	74	17.6	5	11	90	0.00	30.295 
19:30	24.5	17.3	24.5	74	17.4	6	15	90	0.00	30.294 
19:35	24.4	16.3	24.4	74	17.3	7	14	90	0.00	30.294 
19:40	24.2	16.1	24.2	74	17.1	7	13	90	0.00	30.294 
19:45	24.1	15.2	24.1	74	17.0	8	17	90	0.00	30.279 
19:50	24.1	16.0	24.1	74	17.0	7	14	90	0.00	30.279 
19:55	23.9	15.7	23.9	74	16.8	7	15	90	0.00	30.279 
20:00	23.8	14.2	23.8	74	16.7	9	18	90	0.00	30.248 
20:05	23.6	15.4	23.6	74	16.6	7	14	112	0.00	30.248 
20:10	23.5	14.5	23.5	74	16.5	8	16	90	0.00	30.248 
20:15	23.5	15.3	23.5	74	16.5	7	17	112	0.00	30.252 
20:20	23.3	14.3	23.3	74	16.3	8	16	90	0.00	30.252 
20:25	23.2	15.8	23.2	74	16.2	6	15	90	0.00	30.252 
20:30	23.0	13.9	23.0	74	16.0	8	17	112	0.00	30.250 
20:35	22.9	15.4	22.9	74	15.9	6	14	90	0.00	30.250 
20:40	22.7	15.2	22.7	73	15.4	6	16	112	0.00	30.250 
20:45	22.5	13.3	22.5	73	15.2	8	18	112	0.00	30.254 
20:50	22.4	13.9	22.4	73	15.1	7	15	112	0.00	30.254 
20:55	22.4	14.8	22.4	73	15.1	6	15	90	0.00	30.254 
21:00	22.4	14.8	22.4	73	15.1	6	14	90	0.00	30.261 
21:05	22.2	14.6	22.2	73	14.9	6	14	90	0.00	30.261 
21:10	22.2	14.6	22.2	73	14.9	6	14	112	0.00	30.261 
21:15	22.2	12.9	22.2	73	14.9	8	16	90	0.00	30.250 
21:20	22.1	14.4	22.1	73	14.8	6	15	90	0.00	30.250 
21:25	22.2	15.6	22.2	73	14.9	5	12	112	0.00	30.250 
21:30	22.2	14.6	22.2	73	14.9	6	13	90	0.00	30.250 
21:35	22.2	13.7	22.2	73	14.9	7	16	90	0.00	30.250 
21:40	22.1	13.6	22.1	73	14.8	7	18	90	0.00	30.250 
21:45	22.1	12.8	22.1	73	14.8	8	15	90	0.00	30.234 
21:50	21.9	12.5	21.9	73	14.6	8	15	90	0.00	30.234 
21:55	21.9	12.5	21.9	74	14.9	8	15	90	0.00	30.234 
22:00	21.9	12.5	21.9	74	14.9	8	15	90	0.00	30.233 
22:05	21.9	14.2	21.9	74	14.9	6	11	90	0.00	30.233 
22:10	21.8	14.1	21.8	74	14.8	6	12	90	0.00	30.233 
22:15	21.8	13.2	21.8	74	14.8	7	14	90	0.00	30.241 
22:20	21.8	14.1	21.8	74	14.8	6	13	112	0.00	30.241 
22:25	21.8	12.4	21.8	73	14.5	8	14	90	0.00	30.241 
22:30	21.8	13.2	21.8	73	14.5	7	14	112	0.00	30.247 
22:35	21.8	12.4	21.8	74	14.8	8	16	90	0.00	30.247 
22:40	21.6	13.0	21.6	73	14.3	7	12	112	0.00	30.247 
22:45	21.6	13.0	21.6	74	14.6	7	13	90	0.00	30.231 
22:50	21.6	13.0	21.6	74	14.6	7	16	90	0.00	30.231 
22:55	21.4	12.7	21.4	74	14.4	7	14	90	0.00	30.231 
23:00	21.4	11.9	21.4	74	14.4	8	14	90	0.00	30.219 
23:05	21.4	11.2	21.4	74	14.4	9	15	90	0.00	30.219 
23:10	21.3	11.1	21.3	74	14.3	9	16	112	0.00	30.219 
23:15	21.1	10.9	21.1	75	14.4	9	17	90	0.00	30.188 
23:20	21.3	13.5	21.3	75	14.6	6	13	90	0.00	30.188 
23:25	21.3	14.5	21.3	75	14.6	5	11	90	0.00	30.188 
23:30	21.3	14.5	21.3	75	14.6	5	11	90	0.00	30.187 
23:35	21.3	11.8	21.3	75	14.6	8	13	90	0.00	30.187 
23:40	21.1	11.6	21.1	75	14.4	8	14	112	0.00	30.187 
23:45	21.1	13.2	21.1	75	14.4	6	16	112	0.00	30.178 
23:50	21.1	12.4	21.1	75	14.4	7	18	90	0.00	30.178 
23:55	21.3	13.5	21.3	75	14.6	6	13	90	0.00	30.178 

CoCoRaHS
IN-AL-39
A2 Web Hosting
Creative Commons License
GoDaddy
search engine by freefind advanced

loaded 2018-11-18 12:20:25 • last modified 2010-11-18 10:43:29
Privacy PolicyDisclaimer
• wx.awcolley.com is powered by PmWiki v.2002016 •
• all content (unless otherwise noted) © 2018 A W Colley